sensor_id;sensor_type;location;lat;lon;timestamp;P1;durP1;ratioP1;P2;durP2;ratioP2
74632;SDS011;63139;52.018;8.552;2023-03-24T00:01:23;4.75;;;1.98;;
74632;SDS011;63139;52.018;8.552;2023-03-24T00:03:51;4.45;;;1.65;;
74632;SDS011;63139;52.018;8.552;2023-03-24T00:06:20;3.75;;;2.10;;
74632;SDS011;63139;52.018;8.552;2023-03-24T00:08:49;3.55;;;1.90;;
74632;SDS011;63139;52.018;8.552;2023-03-24T00:11:18;3.35;;;1.90;;
74632;SDS011;63139;52.018;8.552;2023-03-24T00:13:48;5.75;;;2.00;;
74632;SDS011;63139;52.018;8.552;2023-03-24T00:16:17;3.67;;;2.22;;
74632;SDS011;63139;52.018;8.552;2023-03-24T00:18:47;5.38;;;1.88;;
74632;SDS011;63139;52.018;8.552;2023-03-24T00:21:20;3.35;;;2.00;;
74632;SDS011;63139;52.018;8.552;2023-03-24T00:23:52;5.13;;;2.30;;
74632;SDS011;63139;52.018;8.552;2023-03-24T00:26:23;2.25;;;1.67;;
74632;SDS011;63139;52.018;8.552;2023-03-24T00:28:53;5.30;;;2.00;;
74632;SDS011;63139;52.018;8.552;2023-03-24T00:31:23;3.10;;;2.10;;
74632;SDS011;63139;52.018;8.552;2023-03-24T00:33:52;4.30;;;2.00;;
74632;SDS011;63139;52.018;8.552;2023-03-24T00:36:21;4.60;;;2.05;;
74632;SDS011;63139;52.018;8.552;2023-03-24T00:38:52;3.38;;;1.80;;
74632;SDS011;63139;52.018;8.552;2023-03-24T00:41:21;3.53;;;2.10;;
74632;SDS011;63139;52.018;8.552;2023-03-24T00:43:50;5.82;;;2.55;;
74632;SDS011;63139;52.018;8.552;2023-03-24T00:46:23;3.88;;;2.30;;
74632;SDS011;63139;52.018;8.552;2023-03-24T00:48:57;4.80;;;2.10;;
74632;SDS011;63139;52.018;8.552;2023-03-24T00:51:33;6.45;;;1.92;;
74632;SDS011;63139;52.018;8.552;2023-03-24T00:54:03;4.00;;;1.92;;
74632;SDS011;63139;52.018;8.552;2023-03-24T00:56:33;2.92;;;1.90;;
74632;SDS011;63139;52.018;8.552;2023-03-24T00:59:05;3.22;;;1.90;;
74632;SDS011;63139;52.018;8.552;2023-03-24T01:01:36;3.97;;;2.03;;
74632;SDS011;63139;52.018;8.552;2023-03-24T01:04:07;3.65;;;1.98;;
74632;SDS011;63139;52.018;8.552;2023-03-24T01:06:36;3.08;;;1.80;;
74632;SDS011;63139;52.018;8.552;2023-03-24T01:09:05;3.08;;;1.80;;
74632;SDS011;63139;52.018;8.552;2023-03-24T01:11:38;3.17;;;1.90;;
74632;SDS011;63139;52.018;8.552;2023-03-24T01:14:09;3.63;;;1.98;;
74632;SDS011;63139;52.018;8.552;2023-03-24T01:16:38;3.67;;;2.00;;
74632;SDS011;63139;52.018;8.552;2023-03-24T01:19:07;3.85;;;2.08;;
74632;SDS011;63139;52.018;8.552;2023-03-24T01:21:36;3.10;;;1.90;;
74632;SDS011;63139;52.018;8.552;2023-03-24T01:24:05;4.18;;;2.03;;
74632;SDS011;63139;52.018;8.552;2023-03-24T01:26:34;1.95;;;1.60;;
74632;SDS011;63139;52.018;8.552;2023-03-24T01:29:03;1.70;;;1.60;;
74632;SDS011;63139;52.018;8.552;2023-03-24T01:31:32;2.28;;;1.80;;
74632;SDS011;63139;52.018;8.552;2023-03-24T01:34:01;2.17;;;1.65;;
74632;SDS011;63139;52.018;8.552;2023-03-24T01:36:29;2.78;;;1.75;;
74632;SDS011;63139;52.018;8.552;2023-03-24T01:38:58;4.40;;;1.85;;
74632;SDS011;63139;52.018;8.552;2023-03-24T01:41:28;3.15;;;1.90;;
74632;SDS011;63139;52.018;8.552;2023-03-24T01:43:59;2.22;;;1.70;;
74632;SDS011;63139;52.018;8.552;2023-03-24T01:46:28;3.15;;;2.05;;
74632;SDS011;63139;52.018;8.552;2023-03-24T01:49:01;2.60;;;2.03;;
74632;SDS011;63139;52.018;8.552;2023-03-24T01:51:33;1.88;;;1.70;;
74632;SDS011;63139;52.018;8.552;2023-03-24T01:54:06;2.55;;;1.70;;
74632;SDS011;63139;52.018;8.552;2023-03-24T01:56:37;3.45;;;1.80;;
74632;SDS011;63139;52.018;8.552;2023-03-24T01:59:11;3.17;;;1.85;;
74632;SDS011;63139;52.018;8.552;2023-03-24T02:01:49;2.13;;;1.52;;
74632;SDS011;63139;52.018;8.552;2023-03-24T02:04:35;2.17;;;1.50;;
74632;SDS011;63139;52.018;8.552;2023-03-24T02:07:11;1.85;;;1.73;;
74632;SDS011;63139;52.018;8.552;2023-03-24T02:09:46;3.50;;;1.75;;
74632;SDS011;63139;52.018;8.552;2023-03-24T02:12:15;2.20;;;2.00;;
74632;SDS011;63139;52.018;8.552;2023-03-24T02:14:44;5.57;;;2.08;;
74632;SDS011;63139;52.018;8.552;2023-03-24T02:29:30;1.80;;;1.70;;
74632;SDS011;63139;52.018;8.552;2023-03-24T02:41:56;2.45;;;1.80;;
74632;SDS011;63139;52.018;8.552;2023-03-24T02:44:33;2.42;;;2.17;;
74632;SDS011;63139;52.018;8.552;2023-03-24T02:47:09;3.72;;;2.33;;
74632;SDS011;63139;52.018;8.552;2023-03-24T02:49:45;2.08;;;1.85;;
74632;SDS011;63139;52.018;8.552;2023-03-24T02:52:24;3.30;;;2.25;;
74632;SDS011;63139;52.018;8.552;2023-03-24T02:55:06;3.35;;;2.20;;
74632;SDS011;63139;52.018;8.552;2023-03-24T02:57:42;3.88;;;2.17;;
74632;SDS011;63139;52.018;8.552;2023-03-24T03:00:40;2.50;;;2.30;;
74632;SDS011;63139;52.018;8.552;2023-03-24T03:03:33;3.10;;;2.50;;
74632;SDS011;63139;52.018;8.552;2023-03-24T03:06:10;3.13;;;2.42;;
74632;SDS011;63139;52.018;8.552;2023-03-24T03:08:43;3.35;;;2.38;;
74632;SDS011;63139;52.018;8.552;2023-03-24T03:11:16;4.70;;;2.53;;
74632;SDS011;63139;52.018;8.552;2023-03-24T03:13:47;3.15;;;2.35;;
74632;SDS011;63139;52.018;8.552;2023-03-24T03:16:20;3.08;;;2.22;;
74632;SDS011;63139;52.018;8.552;2023-03-24T03:18:52;4.00;;;2.40;;
74632;SDS011;63139;52.018;8.552;2023-03-24T03:21:23;3.58;;;2.35;;
74632;SDS011;63139;52.018;8.552;2023-03-24T03:23:55;3.00;;;2.70;;
74632;SDS011;63139;52.018;8.552;2023-03-24T03:26:27;3.20;;;2.38;;
74632;SDS011;63139;52.018;8.552;2023-03-24T03:28:58;4.10;;;2.50;;
74632;SDS011;63139;52.018;8.552;2023-03-24T03:31:31;4.70;;;2.70;;
74632;SDS011;63139;52.018;8.552;2023-03-24T03:34:10;3.08;;;2.30;;
74632;SDS011;63139;52.018;8.552;2023-03-24T03:36:45;4.13;;;2.80;;
74632;SDS011;63139;52.018;8.552;2023-03-24T03:39:19;3.50;;;2.72;;
74632;SDS011;63139;52.018;8.552;2023-03-24T03:41:54;4.28;;;2.90;;
74632;SDS011;63139;52.018;8.552;2023-03-24T03:44:24;4.32;;;3.10;;
74632;SDS011;63139;52.018;8.552;2023-03-24T03:46:53;4.60;;;2.90;;
74632;SDS011;63139;52.018;8.552;2023-03-24T03:49:32;6.25;;;3.00;;
74632;SDS011;63139;52.018;8.552;2023-03-24T03:52:02;3.35;;;2.45;;
74632;SDS011;63139;52.018;8.552;2023-03-24T03:54:30;3.42;;;2.78;;
74632;SDS011;63139;52.018;8.552;2023-03-24T03:57:01;4.05;;;2.90;;
74632;SDS011;63139;52.018;8.552;2023-03-24T03:59:37;4.45;;;3.10;;
74632;SDS011;63139;52.018;8.552;2023-03-24T04:02:17;3.00;;;2.70;;
74632;SDS011;63139;52.018;8.552;2023-03-24T04:08:07;3.25;;;2.50;;
74632;SDS011;63139;52.018;8.552;2023-03-24T04:17:24;4.85;;;2.80;;
74632;SDS011;63139;52.018;8.552;2023-03-24T04:20:06;3.00;;;2.70;;
74632;SDS011;63139;52.018;8.552;2023-03-24T04:22:44;3.55;;;2.97;;
74632;SDS011;63139;52.018;8.552;2023-03-24T04:25:29;3.47;;;2.30;;
74632;SDS011;63139;52.018;8.552;2023-03-24T04:28:04;4.43;;;3.30;;
74632;SDS011;63139;52.018;8.552;2023-03-24T04:30:43;4.07;;;2.95;;
74632;SDS011;63139;52.018;8.552;2023-03-24T04:33:19;3.40;;;2.78;;
74632;SDS011;63139;52.018;8.552;2023-03-24T04:35:55;3.22;;;2.85;;
74632;SDS011;63139;52.018;8.552;2023-03-24T04:38:37;3.08;;;2.72;;
74632;SDS011;63139;52.018;8.552;2023-03-24T04:41:32;3.33;;;2.67;;
74632;SDS011;63139;52.018;8.552;2023-03-24T04:44:11;3.05;;;2.75;;
74632;SDS011;63139;52.018;8.552;2023-03-24T04:47:06;3.10;;;2.53;;
74632;SDS011;63139;52.018;8.552;2023-03-24T04:49:36;3.00;;;2.40;;
74632;SDS011;63139;52.018;8.552;2023-03-24T04:52:06;4.05;;;2.58;;
74632;SDS011;63139;52.018;8.552;2023-03-24T04:54:39;4.30;;;2.70;;
74632;SDS011;63139;52.018;8.552;2023-03-24T04:57:08;2.45;;;2.25;;
74632;SDS011;63139;52.018;8.552;2023-03-24T04:59:43;4.55;;;2.75;;
74632;SDS011;63139;52.018;8.552;2023-03-24T05:02:15;2.40;;;2.13;;
74632;SDS011;63139;52.018;8.552;2023-03-24T05:04:54;3.17;;;2.60;;
74632;SDS011;63139;52.018;8.552;2023-03-24T05:07:30;3.08;;;2.63;;
74632;SDS011;63139;52.018;8.552;2023-03-24T05:10:02;4.80;;;2.83;;
74632;SDS011;63139;52.018;8.552;2023-03-24T05:12:37;3.05;;;2.70;;
74632;SDS011;63139;52.018;8.552;2023-03-24T05:15:18;5.05;;;2.67;;
74632;SDS011;63139;52.018;8.552;2023-03-24T05:17:52;3.38;;;2.95;;
74632;SDS011;63139;52.018;8.552;2023-03-24T05:20:23;4.00;;;3.17;;
74632;SDS011;63139;52.018;8.552;2023-03-24T05:22:52;4.53;;;3.00;;
74632;SDS011;63139;52.018;8.552;2023-03-24T05:25:20;2.63;;;2.42;;
74632;SDS011;63139;52.018;8.552;2023-03-24T05:27:48;3.22;;;2.72;;
74632;SDS011;63139;52.018;8.552;2023-03-24T05:30:23;3.22;;;2.78;;
74632;SDS011;63139;52.018;8.552;2023-03-24T05:33:00;4.95;;;2.88;;
74632;SDS011;63139;52.018;8.552;2023-03-24T05:35:29;3.28;;;2.63;;
74632;SDS011;63139;52.018;8.552;2023-03-24T05:37:57;3.22;;;2.63;;
74632;SDS011;63139;52.018;8.552;2023-03-24T05:40:26;3.78;;;3.03;;
74632;SDS011;63139;52.018;8.552;2023-03-24T05:43:15;3.42;;;2.80;;
74632;SDS011;63139;52.018;8.552;2023-03-24T05:45:54;2.95;;;2.53;;
74632;SDS011;63139;52.018;8.552;2023-03-24T05:48:30;3.60;;;2.75;;
74632;SDS011;63139;52.018;8.552;2023-03-24T05:51:11;4.20;;;3.20;;
74632;SDS011;63139;52.018;8.552;2023-03-24T05:53:39;4.88;;;3.30;;
74632;SDS011;63139;52.018;8.552;2023-03-24T05:56:13;6.28;;;3.42;;
74632;SDS011;63139;52.018;8.552;2023-03-24T05:59:05;5.82;;;4.03;;
74632;SDS011;63139;52.018;8.552;2023-03-24T06:01:51;6.57;;;3.38;;
74632;SDS011;63139;52.018;8.552;2023-03-24T06:04:31;5.25;;;3.40;;
74632;SDS011;63139;52.018;8.552;2023-03-24T06:07:08;3.55;;;3.20;;
74632;SDS011;63139;52.018;8.552;2023-03-24T06:09:37;3.67;;;3.35;;
74632;SDS011;63139;52.018;8.552;2023-03-24T06:12:10;3.75;;;3.45;;
74632;SDS011;63139;52.018;8.552;2023-03-24T06:15:08;6.05;;;3.70;;
74632;SDS011;63139;52.018;8.552;2023-03-24T06:17:37;3.80;;;3.50;;
74632;SDS011;63139;52.018;8.552;2023-03-24T06:20:17;3.75;;;3.40;;
74632;SDS011;63139;52.018;8.552;2023-03-24T06:22:59;4.72;;;4.13;;
74632;SDS011;63139;52.018;8.552;2023-03-24T06:25:40;4.90;;;4.20;;
74632;SDS011;63139;52.018;8.552;2023-03-24T06:28:20;4.38;;;3.97;;
74632;SDS011;63139;52.018;8.552;2023-03-24T06:30:54;4.70;;;3.92;;
74632;SDS011;63139;52.018;8.552;2023-03-24T06:33:30;4.88;;;3.90;;
74632;SDS011;63139;52.018;8.552;2023-03-24T06:36:02;4.55;;;3.42;;
74632;SDS011;63139;52.018;8.552;2023-03-24T06:38:33;6.28;;;3.10;;
74632;SDS011;63139;52.018;8.552;2023-03-24T06:41:03;3.03;;;2.30;;
74632;SDS011;63139;52.018;8.552;2023-03-24T06:43:35;2.65;;;2.10;;
74632;SDS011;63139;52.018;8.552;2023-03-24T06:46:03;3.58;;;1.83;;
74632;SDS011;63139;52.018;8.552;2023-03-24T06:48:33;3.22;;;1.50;;
74632;SDS011;63139;52.018;8.552;2023-03-24T06:51:07;3.63;;;1.42;;
74632;SDS011;63139;52.018;8.552;2023-03-24T06:53:36;2.95;;;1.27;;
74632;SDS011;63139;52.018;8.552;2023-03-24T06:56:06;1.20;;;1.10;;
74632;SDS011;63139;52.018;8.552;2023-03-24T06:58:41;3.95;;;1.13;;
74632;SDS011;63139;52.018;8.552;2023-03-24T07:01:24;3.05;;;1.42;;
74632;SDS011;63139;52.018;8.552;2023-03-24T07:03:55;1.77;;;1.00;;
74632;SDS011;63139;52.018;8.552;2023-03-24T07:06:25;1.58;;;0.93;;
74632;SDS011;63139;52.018;8.552;2023-03-24T07:09:01;1.98;;;1.30;;
74632;SDS011;63139;52.018;8.552;2023-03-24T07:11:30;2.00;;;1.15;;
74632;SDS011;63139;52.018;8.552;2023-03-24T07:13:59;2.13;;;1.00;;
74632;SDS011;63139;52.018;8.552;2023-03-24T07:16:29;3.95;;;1.40;;
74632;SDS011;63139;52.018;8.552;2023-03-24T07:19:25;1.17;;;0.93;;
74632;SDS011;63139;52.018;8.552;2023-03-24T07:22:14;4.65;;;1.52;;
74632;SDS011;63139;52.018;8.552;2023-03-24T07:25:00;5.90;;;1.98;;
74632;SDS011;63139;52.018;8.552;2023-03-24T07:27:38;5.88;;;1.63;;
74632;SDS011;63139;52.018;8.552;2023-03-24T07:30:08;3.83;;;1.95;;
74632;SDS011;63139;52.018;8.552;2023-03-24T07:32:40;5.68;;;1.90;;
74632;SDS011;63139;52.018;8.552;2023-03-24T07:35:10;5.80;;;2.00;;
74632;SDS011;63139;52.018;8.552;2023-03-24T07:37:40;4.63;;;2.15;;
74632;SDS011;63139;52.018;8.552;2023-03-24T07:40:10;8.10;;;2.20;;
74632;SDS011;63139;52.018;8.552;2023-03-24T07:42:40;4.95;;;2.70;;
74632;SDS011;63139;52.018;8.552;2023-03-24T07:45:28;6.47;;;2.45;;
74632;SDS011;63139;52.018;8.552;2023-03-24T07:47:57;4.78;;;2.00;;
74632;SDS011;63139;52.018;8.552;2023-03-24T07:50:31;5.05;;;2.53;;
74632;SDS011;63139;52.018;8.552;2023-03-24T07:53:13;5.07;;;2.55;;
74632;SDS011;63139;52.018;8.552;2023-03-24T07:55:50;5.93;;;2.75;;
74632;SDS011;63139;52.018;8.552;2023-03-24T07:58:22;6.80;;;2.92;;
74632;SDS011;63139;52.018;8.552;2023-03-24T08:01:11;6.95;;;3.00;;
74632;SDS011;63139;52.018;8.552;2023-03-24T08:03:43;8.85;;;2.80;;
74632;SDS011;63139;52.018;8.552;2023-03-24T08:06:15;9.27;;;2.83;;
74632;SDS011;63139;52.018;8.552;2023-03-24T08:08:50;8.07;;;3.35;;
74632;SDS011;63139;52.018;8.552;2023-03-24T08:11:18;7.97;;;2.80;;
74632;SDS011;63139;52.018;8.552;2023-03-24T08:13:46;9.90;;;3.42;;
74632;SDS011;63139;52.018;8.552;2023-03-24T08:16:15;6.32;;;2.55;;
74632;SDS011;63139;52.018;8.552;2023-03-24T08:18:43;7.07;;;2.60;;
74632;SDS011;63139;52.018;8.552;2023-03-24T08:21:11;7.57;;;2.92;;
74632;SDS011;63139;52.018;8.552;2023-03-24T08:23:39;9.40;;;3.25;;
74632;SDS011;63139;52.018;8.552;2023-03-24T08:26:08;8.05;;;2.20;;
74632;SDS011;63139;52.018;8.552;2023-03-24T08:28:37;9.88;;;2.33;;
74632;SDS011;63139;52.018;8.552;2023-03-24T08:31:05;11.98;;;2.60;;
74632;SDS011;63139;52.018;8.552;2023-03-24T08:33:34;11.18;;;3.03;;
74632;SDS011;63139;52.018;8.552;2023-03-24T08:36:02;9.30;;;2.88;;
74632;SDS011;63139;52.018;8.552;2023-03-24T08:38:32;7.20;;;2.40;;
74632;SDS011;63139;52.018;8.552;2023-03-24T08:41:05;4.93;;;2.28;;
74632;SDS011;63139;52.018;8.552;2023-03-24T08:43:36;9.05;;;2.70;;
74632;SDS011;63139;52.018;8.552;2023-03-24T08:46:05;8.13;;;2.45;;
74632;SDS011;63139;52.018;8.552;2023-03-24T08:48:38;8.35;;;2.05;;
74632;SDS011;63139;52.018;8.552;2023-03-24T08:51:10;8.07;;;2.58;;
74632;SDS011;63139;52.018;8.552;2023-03-24T08:53:40;9.10;;;2.72;;
74632;SDS011;63139;52.018;8.552;2023-03-24T08:56:09;4.88;;;2.22;;
74632;SDS011;63139;52.018;8.552;2023-03-24T08:58:39;6.93;;;2.10;;
74632;SDS011;63139;52.018;8.552;2023-03-24T09:01:06;6.60;;;1.85;;
74632;SDS011;63139;52.018;8.552;2023-03-24T09:03:35;6.95;;;2.30;;
74632;SDS011;63139;52.018;8.552;2023-03-24T09:06:05;7.93;;;2.33;;
74632;SDS011;63139;52.018;8.552;2023-03-24T09:08:34;10.88;;;2.42;;
74632;SDS011;63139;52.018;8.552;2023-03-24T09:11:02;7.60;;;2.55;;
74632;SDS011;63139;52.018;8.552;2023-03-24T09:13:30;6.93;;;2.33;;
74632;SDS011;63139;52.018;8.552;2023-03-24T09:16:01;6.85;;;2.60;;
74632;SDS011;63139;52.018;8.552;2023-03-24T09:18:30;7.13;;;2.50;;
74632;SDS011;63139;52.018;8.552;2023-03-24T09:20:58;7.80;;;2.65;;
74632;SDS011;63139;52.018;8.552;2023-03-24T09:23:27;9.15;;;2.88;;
74632;SDS011;63139;52.018;8.552;2023-03-24T09:25:57;6.60;;;2.63;;
74632;SDS011;63139;52.018;8.552;2023-03-24T09:28:25;5.20;;;2.40;;
74632;SDS011;63139;52.018;8.552;2023-03-24T09:30:55;8.52;;;3.03;;
74632;SDS011;63139;52.018;8.552;2023-03-24T09:33:26;10.55;;;2.78;;
74632;SDS011;63139;52.018;8.552;2023-03-24T09:35:56;6.75;;;2.85;;
74632;SDS011;63139;52.018;8.552;2023-03-24T09:38:26;5.55;;;2.40;;
74632;SDS011;63139;52.018;8.552;2023-03-24T09:40:56;7.07;;;2.35;;
74632;SDS011;63139;52.018;8.552;2023-03-24T09:43:30;7.30;;;2.20;;
74632;SDS011;63139;52.018;8.552;2023-03-24T09:46:04;8.17;;;2.53;;
74632;SDS011;63139;52.018;8.552;2023-03-24T09:48:41;9.33;;;2.10;;
74632;SDS011;63139;52.018;8.552;2023-03-24T09:51:17;7.85;;;2.00;;
74632;SDS011;63139;52.018;8.552;2023-03-24T09:53:49;8.00;;;2.08;;
74632;SDS011;63139;52.018;8.552;2023-03-24T09:56:21;6.03;;;1.90;;
74632;SDS011;63139;52.018;8.552;2023-03-24T09:58:52;4.75;;;1.90;;
74632;SDS011;63139;52.018;8.552;2023-03-24T10:01:29;13.68;;;2.20;;
74632;SDS011;63139;52.018;8.552;2023-03-24T10:04:01;5.25;;;1.70;;
74632;SDS011;63139;52.018;8.552;2023-03-24T10:06:31;10.55;;;2.50;;
74632;SDS011;63139;52.018;8.552;2023-03-24T10:09:07;5.65;;;1.98;;
74632;SDS011;63139;52.018;8.552;2023-03-24T10:11:49;7.22;;;1.98;;
74632;SDS011;63139;52.018;8.552;2023-03-24T10:14:26;6.82;;;2.05;;
74632;SDS011;63139;52.018;8.552;2023-03-24T10:17:10;7.43;;;2.58;;
74632;SDS011;63139;52.018;8.552;2023-03-24T10:19:51;7.57;;;2.30;;
74632;SDS011;63139;52.018;8.552;2023-03-24T10:22:27;6.97;;;1.80;;
74632;SDS011;63139;52.018;8.552;2023-03-24T10:25:02;6.88;;;1.88;;
74632;SDS011;63139;52.018;8.552;2023-03-24T10:27:40;8.27;;;2.08;;
74632;SDS011;63139;52.018;8.552;2023-03-24T10:30:15;8.43;;;2.30;;
74632;SDS011;63139;52.018;8.552;2023-03-24T10:32:46;8.52;;;2.22;;
74632;SDS011;63139;52.018;8.552;2023-03-24T10:35:17;10.13;;;1.98;;
74632;SDS011;63139;52.018;8.552;2023-03-24T10:37:48;5.65;;;1.90;;
74632;SDS011;63139;52.018;8.552;2023-03-24T10:40:24;10.93;;;2.22;;
74632;SDS011;63139;52.018;8.552;2023-03-24T10:42:59;10.70;;;2.42;;
74632;SDS011;63139;52.018;8.552;2023-03-24T10:45:35;6.80;;;1.87;;
74632;SDS011;63139;52.018;8.552;2023-03-24T10:48:06;5.40;;;1.70;;
74632;SDS011;63139;52.018;8.552;2023-03-24T10:50:36;7.13;;;1.70;;
74632;SDS011;63139;52.018;8.552;2023-03-24T10:53:10;6.82;;;1.90;;
74632;SDS011;63139;52.018;8.552;2023-03-24T10:55:44;6.80;;;1.70;;
74632;SDS011;63139;52.018;8.552;2023-03-24T10:58:15;4.93;;;1.45;;
74632;SDS011;63139;52.018;8.552;2023-03-24T11:00:48;4.53;;;1.70;;
74632;SDS011;63139;52.018;8.552;2023-03-24T11:03:19;7.50;;;2.00;;
74632;SDS011;63139;52.018;8.552;2023-03-24T11:05:58;7.28;;;1.65;;
74632;SDS011;63139;52.018;8.552;2023-03-24T11:08:32;4.70;;;1.58;;
74632;SDS011;63139;52.018;8.552;2023-03-24T11:11:11;3.35;;;1.38;;
74632;SDS011;63139;52.018;8.552;2023-03-24T11:13:41;6.13;;;1.40;;
74632;SDS011;63139;52.018;8.552;2023-03-24T11:16:25;5.18;;;1.52;;
74632;SDS011;63139;52.018;8.552;2023-03-24T11:18:55;5.68;;;1.60;;
74632;SDS011;63139;52.018;8.552;2023-03-24T11:21:28;6.05;;;1.65;;
74632;SDS011;63139;52.018;8.552;2023-03-24T11:23:57;7.05;;;1.40;;
74632;SDS011;63139;52.018;8.552;2023-03-24T11:26:28;6.00;;;1.65;;
74632;SDS011;63139;52.018;8.552;2023-03-24T11:28:59;5.65;;;1.42;;
74632;SDS011;63139;52.018;8.552;2023-03-24T11:31:30;4.68;;;1.65;;
74632;SDS011;63139;52.018;8.552;2023-03-24T11:34:05;6.55;;;1.38;;
74632;SDS011;63139;52.018;8.552;2023-03-24T11:36:53;7.97;;;1.50;;
74632;SDS011;63139;52.018;8.552;2023-03-24T11:39:23;7.10;;;1.80;;
74632;SDS011;63139;52.018;8.552;2023-03-24T11:42:03;8.65;;;2.13;;
74632;SDS011;63139;52.018;8.552;2023-03-24T11:44:43;4.38;;;1.73;;
74632;SDS011;63139;52.018;8.552;2023-03-24T11:47:23;5.93;;;1.67;;
74632;SDS011;63139;52.018;8.552;2023-03-24T11:50:12;6.90;;;1.73;;
74632;SDS011;63139;52.018;8.552;2023-03-24T11:52:51;6.40;;;1.73;;
74632;SDS011;63139;52.018;8.552;2023-03-24T11:55:23;6.28;;;1.80;;
74632;SDS011;63139;52.018;8.552;2023-03-24T11:58:01;6.65;;;1.77;;
74632;SDS011;63139;52.018;8.552;2023-03-24T12:00:32;5.68;;;1.95;;
74632;SDS011;63139;52.018;8.552;2023-03-24T12:03:19;3.33;;;1.38;;
74632;SDS011;63139;52.018;8.552;2023-03-24T12:06:06;9.85;;;2.50;;
74632;SDS011;63139;52.018;8.552;2023-03-24T12:08:50;10.88;;;2.08;;
74632;SDS011;63139;52.018;8.552;2023-03-24T12:11:31;5.53;;;1.60;;
74632;SDS011;63139;52.018;8.552;2023-03-24T12:14:10;5.10;;;1.83;;
74632;SDS011;63139;52.018;8.552;2023-03-24T12:16:46;4.63;;;1.45;;
74632;SDS011;63139;52.018;8.552;2023-03-24T12:22:37;5.20;;;2.08;;
74632;SDS011;63139;52.018;8.552;2023-03-24T12:28:24;6.07;;;1.58;;
74632;SDS011;63139;52.018;8.552;2023-03-24T12:31:12;9.35;;;1.73;;
74632;SDS011;63139;52.018;8.552;2023-03-24T12:33:54;3.80;;;1.67;;
74632;SDS011;63139;52.018;8.552;2023-03-24T12:36:33;10.05;;;2.03;;
74632;SDS011;63139;52.018;8.552;2023-03-24T12:39:08;8.25;;;1.88;;
74632;SDS011;63139;52.018;8.552;2023-03-24T12:44:53;6.85;;;1.80;;
74632;SDS011;63139;52.018;8.552;2023-03-24T12:47:48;5.68;;;1.60;;
74632;SDS011;63139;52.018;8.552;2023-03-24T12:50:38;8.43;;;1.90;;
74632;SDS011;63139;52.018;8.552;2023-03-24T12:53:20;5.15;;;1.88;;
74632;SDS011;63139;52.018;8.552;2023-03-24T12:56:02;6.07;;;1.50;;
74632;SDS011;63139;52.018;8.552;2023-03-24T12:58:40;5.60;;;1.73;;
74632;SDS011;63139;52.018;8.552;2023-03-24T13:01:12;4.20;;;1.65;;
74632;SDS011;63139;52.018;8.552;2023-03-24T13:03:47;6.93;;;1.85;;
74632;SDS011;63139;52.018;8.552;2023-03-24T13:06:23;6.40;;;1.77;;
74632;SDS011;63139;52.018;8.552;2023-03-24T13:09:01;4.45;;;1.73;;
74632;SDS011;63139;52.018;8.552;2023-03-24T13:11:37;5.55;;;1.70;;
74632;SDS011;63139;52.018;8.552;2023-03-24T13:14:17;6.88;;;1.65;;
74632;SDS011;63139;52.018;8.552;2023-03-24T13:16:50;4.32;;;1.70;;
74632;SDS011;63139;52.018;8.552;2023-03-24T13:19:26;4.53;;;1.92;;
74632;SDS011;63139;52.018;8.552;2023-03-24T13:21:55;5.05;;;1.73;;
74632;SDS011;63139;52.018;8.552;2023-03-24T13:24:24;8.32;;;1.70;;
74632;SDS011;63139;52.018;8.552;2023-03-24T13:26:56;4.85;;;1.60;;
74632;SDS011;63139;52.018;8.552;2023-03-24T13:29:51;5.22;;;1.48;;
74632;SDS011;63139;52.018;8.552;2023-03-24T13:32:34;3.78;;;1.60;;
74632;SDS011;63139;52.018;8.552;2023-03-24T13:35:09;4.53;;;1.48;;
74632;SDS011;63139;52.018;8.552;2023-03-24T13:37:45;2.80;;;1.25;;
74632;SDS011;63139;52.018;8.552;2023-03-24T13:40:19;4.20;;;1.25;;
74632;SDS011;63139;52.018;8.552;2023-03-24T13:42:51;4.45;;;1.60;;
74632;SDS011;63139;52.018;8.552;2023-03-24T13:45:36;4.47;;;1.63;;
74632;SDS011;63139;52.018;8.552;2023-03-24T13:51:00;5.75;;;1.80;;
74632;SDS011;63139;52.018;8.552;2023-03-24T13:53:37;5.85;;;1.90;;
74632;SDS011;63139;52.018;8.552;2023-03-24T13:56:11;9.18;;;1.90;;
74632;SDS011;63139;52.018;8.552;2023-03-24T14:01:35;5.45;;;1.50;;
74632;SDS011;63139;52.018;8.552;2023-03-24T14:04:19;3.88;;;1.77;;
74632;SDS011;63139;52.018;8.552;2023-03-24T14:06:55;3.63;;;1.63;;
74632;SDS011;63139;52.018;8.552;2023-03-24T14:09:24;5.70;;;1.73;;
74632;SDS011;63139;52.018;8.552;2023-03-24T14:17:54;6.63;;;1.67;;
74632;SDS011;63139;52.018;8.552;2023-03-24T14:20:41;2.53;;;1.48;;
74632;SDS011;63139;52.018;8.552;2023-03-24T14:23:29;6.22;;;1.83;;
74632;SDS011;63139;52.018;8.552;2023-03-24T14:26:03;5.63;;;1.70;;
74632;SDS011;63139;52.018;8.552;2023-03-24T14:28:35;3.95;;;1.70;;
74632;SDS011;63139;52.018;8.552;2023-03-24T14:31:08;6.22;;;2.00;;
74632;SDS011;63139;52.018;8.552;2023-03-24T14:33:58;4.35;;;1.80;;
74632;SDS011;63139;52.018;8.552;2023-03-24T14:36:29;3.40;;;1.45;;
74632;SDS011;63139;52.018;8.552;2023-03-24T14:39:05;6.72;;;2.05;;
74632;SDS011;63139;52.018;8.552;2023-03-24T14:41:47;4.75;;;1.58;;
74632;SDS011;63139;52.018;8.552;2023-03-24T14:47:19;6.35;;;1.60;;
74632;SDS011;63139;52.018;8.552;2023-03-24T14:49:51;2.97;;;1.60;;
74632;SDS011;63139;52.018;8.552;2023-03-24T14:52:21;3.78;;;1.50;;
74632;SDS011;63139;52.018;8.552;2023-03-24T14:54:53;4.05;;;1.60;;
74632;SDS011;63139;52.018;8.552;2023-03-24T14:57:26;5.43;;;1.80;;
74632;SDS011;63139;52.018;8.552;2023-03-24T14:59:57;5.38;;;1.60;;
74632;SDS011;63139;52.018;8.552;2023-03-24T15:02:38;6.22;;;1.80;;
74632;SDS011;63139;52.018;8.552;2023-03-24T15:05:16;5.43;;;1.90;;
74632;SDS011;63139;52.018;8.552;2023-03-24T15:08:00;8.13;;;1.90;;
74632;SDS011;63139;52.018;8.552;2023-03-24T15:10:32;5.32;;;1.67;;
74632;SDS011;63139;52.018;8.552;2023-03-24T15:13:04;7.10;;;1.50;;
74632;SDS011;63139;52.018;8.552;2023-03-24T15:15:32;5.75;;;1.67;;
74632;SDS011;63139;52.018;8.552;2023-03-24T15:18:01;5.15;;;1.70;;
74632;SDS011;63139;52.018;8.552;2023-03-24T15:20:32;8.57;;;1.38;;
74632;SDS011;63139;52.018;8.552;2023-03-24T15:23:04;4.80;;;1.33;;
74632;SDS011;63139;52.018;8.552;2023-03-24T15:25:39;4.22;;;1.30;;
74632;SDS011;63139;52.018;8.552;2023-03-24T15:28:10;2.35;;;1.13;;
74632;SDS011;63139;52.018;8.552;2023-03-24T15:30:45;2.03;;;1.20;;
74632;SDS011;63139;52.018;8.552;2023-03-24T15:33:14;2.75;;;1.13;;
74632;SDS011;63139;52.018;8.552;2023-03-24T15:35:44;2.03;;;1.15;;
74632;SDS011;63139;52.018;8.552;2023-03-24T15:38:16;1.75;;;0.93;;
74632;SDS011;63139;52.018;8.552;2023-03-24T15:40:56;2.67;;;0.90;;
74632;SDS011;63139;52.018;8.552;2023-03-24T15:43:26;1.00;;;0.85;;
74632;SDS011;63139;52.018;8.552;2023-03-24T15:45:55;2.85;;;1.00;;
74632;SDS011;63139;52.018;8.552;2023-03-24T15:48:37;2.83;;;0.90;;
74632;SDS011;63139;52.018;8.552;2023-03-24T15:51:07;1.75;;;0.90;;
74632;SDS011;63139;52.018;8.552;2023-03-24T15:53:38;0.82;;;0.82;;
74632;SDS011;63139;52.018;8.552;2023-03-24T15:56:17;1.17;;;0.68;;
74632;SDS011;63139;52.018;8.552;2023-03-24T15:58:49;0.73;;;0.70;;
74632;SDS011;63139;52.018;8.552;2023-03-24T16:01:22;2.65;;;0.90;;
74632;SDS011;63139;52.018;8.552;2023-03-24T16:03:56;1.60;;;0.80;;
74632;SDS011;63139;52.018;8.552;2023-03-24T16:06:28;2.90;;;0.90;;
74632;SDS011;63139;52.018;8.552;2023-03-24T16:09:00;1.48;;;0.80;;
74632;SDS011;63139;52.018;8.552;2023-03-24T16:11:34;1.25;;;0.90;;
74632;SDS011;63139;52.018;8.552;2023-03-24T16:14:05;1.08;;;0.80;;
74632;SDS011;63139;52.018;8.552;2023-03-24T16:16:47;2.17;;;0.82;;
74632;SDS011;63139;52.018;8.552;2023-03-24T16:19:20;2.05;;;0.98;;
74632;SDS011;63139;52.018;8.552;2023-03-24T16:21:49;1.13;;;0.70;;
74632;SDS011;63139;52.018;8.552;2023-03-24T16:24:17;1.23;;;0.80;;
74632;SDS011;63139;52.018;8.552;2023-03-24T16:26:45;1.15;;;0.80;;